sensor_id;sensor_type;location;lat;lon;timestamp;temperature;humidity
25716;DHT22;13573;50.936;4.328;2022-09-09T00:06:45;16.90;99.90
25716;DHT22;13573;50.936;4.328;2022-09-09T00:09:18;15.40;99.90
25716;DHT22;13573;50.936;4.328;2022-09-09T00:11:51;15.60;99.90
25716;DHT22;13573;50.936;4.328;2022-09-09T00:14:45;15.70;99.90
25716;DHT22;13573;50.936;4.328;2022-09-09T00:19:45;15.70;99.90
25716;DHT22;13573;50.936;4.328;2022-09-09T00:22:18;15.50;99.90
25716;DHT22;13573;50.936;4.328;2022-09-09T00:24:51;15.30;99.90
25716;DHT22;13573;50.936;4.328;2022-09-09T00:27:28;15.20;99.90
25716;DHT22;13573;50.936;4.328;2022-09-09T00:35:02;15.20;99.90
25716;DHT22;13573;50.936;4.328;2022-09-09T00:45:01;15.50;99.90
25716;DHT22;13573;50.936;4.328;2022-09-09T00:50:01;15.60;99.90
25716;DHT22;13573;50.936;4.328;2022-09-09T00:52:40;15.40;99.90
25716;DHT22;13573;50.936;4.328;2022-09-09T00:57:41;15.50;99.90
25716;DHT22;13573;50.936;4.328;2022-09-09T01:00:17;15.40;99.90
25716;DHT22;13573;50.936;4.328;2022-09-09T01:03:08;15.00;99.90
25716;DHT22;13573;50.936;4.328;2022-09-09T01:13:04;15.60;99.90
25716;DHT22;13573;50.936;4.328;2022-09-09T01:15:32;15.20;99.90
25716;DHT22;13573;50.936;4.328;2022-09-09T01:18:05;15.80;99.90
25716;DHT22;13573;50.936;4.328;2022-09-09T01:20:42;15.50;99.90
25716;DHT22;13573;50.936;4.328;2022-09-09T01:23:34;15.70;99.90
25716;DHT22;13573;50.936;4.328;2022-09-09T01:28:50;14.90;99.90
25716;DHT22;13573;50.936;4.328;2022-09-09T01:31:26;15.60;99.90
25716;DHT22;13573;50.936;4.328;2022-09-09T01:33:52;15.40;99.90
25716;DHT22;13573;50.936;4.328;2022-09-09T01:36:25;15.40;99.90
25716;DHT22;13573;50.936;4.328;2022-09-09T01:38:52;15.70;99.90
25716;DHT22;13573;50.936;4.328;2022-09-09T01:41:19;15.30;99.90
25716;DHT22;13573;50.936;4.328;2022-09-09T01:43:47;15.30;99.90
25716;DHT22;13573;50.936;4.328;2022-09-09T01:46:15;15.20;99.90
25716;DHT22;13573;50.936;4.328;2022-09-09T01:48:43;15.60;99.90
25716;DHT22;13573;50.936;4.328;2022-09-09T01:51:10;15.70;99.90
25716;DHT22;13573;50.936;4.328;2022-09-09T01:58:57;17.00;99.90
25716;DHT22;13573;50.936;4.328;2022-09-09T02:01:27;15.20;99.90
25716;DHT22;13573;50.936;4.328;2022-09-09T02:03:55;16.30;99.90
25716;DHT22;13573;50.936;4.328;2022-09-09T02:08:55;14.80;99.90
25716;DHT22;13573;50.936;4.328;2022-09-09T02:16:33;16.10;99.90
25716;DHT22;13573;50.936;4.328;2022-09-09T02:21:31;15.20;99.90
25716;DHT22;13573;50.936;4.328;2022-09-09T02:24:02;15.60;99.90
25716;DHT22;13573;50.936;4.328;2022-09-09T02:31:28;15.40;99.90
25716;DHT22;13573;50.936;4.328;2022-09-09T02:33:58;15.30;99.90
25716;DHT22;13573;50.936;4.328;2022-09-09T02:36:27;15.40;99.90
25716;DHT22;13573;50.936;4.328;2022-09-09T02:38:56;14.90;99.90
25716;DHT22;13573;50.936;4.328;2022-09-09T02:41:28;15.20;99.90
25716;DHT22;13573;50.936;4.328;2022-09-09T02:43:54;15.70;99.90
25716;DHT22;13573;50.936;4.328;2022-09-09T02:49:06;15.60;99.90
25716;DHT22;13573;50.936;4.328;2022-09-09T02:54:17;16.60;99.90
25716;DHT22;13573;50.936;4.328;2022-09-09T02:56:47;15.40;99.90
25716;DHT22;13573;50.936;4.328;2022-09-09T02:59:16;15.70;99.90
25716;DHT22;13573;50.936;4.328;2022-09-09T03:01:44;15.60;99.90
25716;DHT22;13573;50.936;4.328;2022-09-09T03:04:10;15.40;99.90
25716;DHT22;13573;50.936;4.328;2022-09-09T03:09:04;15.70;99.90
25716;DHT22;13573;50.936;4.328;2022-09-09T03:13:58;15.30;99.90
25716;DHT22;13573;50.936;4.328;2022-09-09T03:16:24;15.30;99.90
25716;DHT22;13573;50.936;4.328;2022-09-09T03:21:18;15.10;99.90
25716;DHT22;13573;50.936;4.328;2022-09-09T03:23:44;15.50;99.90
25716;DHT22;13573;50.936;4.328;2022-09-09T03:26:11;15.20;99.90
25716;DHT22;13573;50.936;4.328;2022-09-09T03:28:41;15.30;99.90
25716;DHT22;13573;50.936;4.328;2022-09-09T03:33:37;15.40;99.90
25716;DHT22;13573;50.936;4.328;2022-09-09T03:36:05;15.40;99.90
25716;DHT22;13573;50.936;4.328;2022-09-09T03:38:33;15.30;99.90
25716;DHT22;13573;50.936;4.328;2022-09-09T03:41:00;15.30;99.90
25716;DHT22;13573;50.936;4.328;2022-09-09T03:43:28;15.40;99.90
25716;DHT22;13573;50.936;4.328;2022-09-09T03:45:55;15.40;99.90
25716;DHT22;13573;50.936;4.328;2022-09-09T03:50:52;15.60;99.90
25716;DHT22;13573;50.936;4.328;2022-09-09T03:53:22;15.30;99.90
25716;DHT22;13573;50.936;4.328;2022-09-09T03:58:18;15.20;99.90
25716;DHT22;13573;50.936;4.328;2022-09-09T04:00:53;15.40;99.90
25716;DHT22;13573;50.936;4.328;2022-09-09T04:03:20;15.60;99.90
25716;DHT22;13573;50.936;4.328;2022-09-09T04:05:48;15.50;99.90
25716;DHT22;13573;50.936;4.328;2022-09-09T04:08:15;15.50;99.90
25716;DHT22;13573;50.936;4.328;2022-09-09T04:13:11;15.30;99.90
25716;DHT22;13573;50.936;4.328;2022-09-09T04:18:05;15.20;99.90
25716;DHT22;13573;50.936;4.328;2022-09-09T04:22:59;17.00;99.90
25716;DHT22;13573;50.936;4.328;2022-09-09T04:25:26;15.00;99.90
25716;DHT22;13573;50.936;4.328;2022-09-09T04:27:55;15.50;99.90
25716;DHT22;13573;50.936;4.328;2022-09-09T04:30:22;15.50;99.90
25716;DHT22;13573;50.936;4.328;2022-09-09T04:37:44;16.60;99.90
25716;DHT22;13573;50.936;4.328;2022-09-09T04:40:11;15.40;99.90
25716;DHT22;13573;50.936;4.328;2022-09-09T04:45:06;15.30;99.90
25716;DHT22;13573;50.936;4.328;2022-09-09T04:52:27;15.00;99.90
25716;DHT22;13573;50.936;4.328;2022-09-09T04:54:54;15.20;99.90
25716;DHT22;13573;50.936;4.328;2022-09-09T04:59:47;15.40;99.90
25716;DHT22;13573;50.936;4.328;2022-09-09T05:07:07;14.60;99.90
25716;DHT22;13573;50.936;4.328;2022-09-09T05:09:34;15.30;99.90
25716;DHT22;13573;50.936;4.328;2022-09-09T05:19:24;16.20;99.90
25716;DHT22;13573;50.936;4.328;2022-09-09T05:24:18;16.70;99.90
25716;DHT22;13573;50.936;4.328;2022-09-09T05:29:11;17.20;99.90
25716;DHT22;13573;50.936;4.328;2022-09-09T05:31:38;18.40;99.90
25716;DHT22;13573;50.936;4.328;2022-09-09T05:34:05;17.10;99.90
25716;DHT22;13573;50.936;4.328;2022-09-09T05:36:31;16.90;99.90
25716;DHT22;13573;50.936;4.328;2022-09-09T05:38:58;17.70;99.90
25716;DHT22;13573;50.936;4.328;2022-09-09T05:41:25;16.90;99.90
25716;DHT22;13573;50.936;4.328;2022-09-09T05:43:51;16.90;99.90
25716;DHT22;13573;50.936;4.328;2022-09-09T05:46:20;16.60;99.90
25716;DHT22;13573;50.936;4.328;2022-09-09T05:48:48;16.50;99.90
25716;DHT22;13573;50.936;4.328;2022-09-09T05:53:49;16.70;99.90
25716;DHT22;13573;50.936;4.328;2022-09-09T06:03:43;16.70;99.90
25716;DHT22;13573;50.936;4.328;2022-09-09T06:23:27;18.10;99.90
25716;DHT22;13573;50.936;4.328;2022-09-09T06:33:33;17.50;99.90
25716;DHT22;13573;50.936;4.328;2022-09-09T06:50:48;17.80;99.90
25716;DHT22;13573;50.936;4.328;2022-09-09T06:58:12;18.10;99.90
25716;DHT22;13573;50.936;4.328;2022-09-09T07:05:32;20.00;99.90
25716;DHT22;13573;50.936;4.328;2022-09-09T07:12:52;18.60;99.90
25716;DHT22;13573;50.936;4.328;2022-09-09T07:17:46;18.70;99.90
25716;DHT22;13573;50.936;4.328;2022-09-09T07:56:58;17.50;99.90
25716;DHT22;13573;50.936;4.328;2022-09-09T08:01:53;17.60;99.90
25716;DHT22;13573;50.936;4.328;2022-09-09T08:06:54;17.50;99.90
25716;DHT22;13573;50.936;4.328;2022-09-09T08:09:21;16.80;99.90
25716;DHT22;13573;50.936;4.328;2022-09-09T08:19:13;17.10;99.90
25716;DHT22;13573;50.936;4.328;2022-09-09T09:27:13;17.30;99.90
25716;DHT22;13573;50.936;4.328;2022-09-09T09:42:10;16.80;99.90
25716;DHT22;13573;50.936;4.328;2022-09-09T09:47:11;16.70;99.90
25716;DHT22;13573;50.936;4.328;2022-09-09T09:57:12;16.60;99.90
25716;DHT22;13573;50.936;4.328;2022-09-09T10:02:20;17.00;99.90
25716;DHT22;13573;50.936;4.328;2022-09-09T10:07:21;17.20;99.90
25716;DHT22;13573;50.936;4.328;2022-09-09T10:43:39;19.10;99.90
25716;DHT22;13573;50.936;4.328;2022-09-09T10:48:55;19.50;99.90
25716;DHT22;13573;50.936;4.328;2022-09-09T10:56:22;19.20;99.90
25716;DHT22;13573;50.936;4.328;2022-09-09T11:11:34;19.40;99.90
25716;DHT22;13573;50.936;4.328;2022-09-09T11:39:51;19.50;99.90
25716;DHT22;13573;50.936;4.328;2022-09-09T11:54:49;19.20;99.90
25716;DHT22;13573;50.936;4.328;2022-09-09T11:59:50;20.50;99.90
25716;DHT22;13573;50.936;4.328;2022-09-09T12:42:30;20.30;99.90
25716;DHT22;13573;50.936;4.328;2022-09-09T12:52:30;20.30;99.90
25716;DHT22;13573;50.936;4.328;2022-09-09T13:02:26;21.10;99.90
25716;DHT22;13573;50.936;4.328;2022-09-09T13:14:51;21.10;99.90
25716;DHT22;13573;50.936;4.328;2022-09-09T13:29:55;21.00;99.90
25716;DHT22;13573;50.936;4.328;2022-09-09T13:32:24;20.60;99.90
25716;DHT22;13573;50.936;4.328;2022-09-09T13:37:32;21.00;99.90
25716;DHT22;13573;50.936;4.328;2022-09-09T13:39:57;19.90;99.90
25716;DHT22;13573;50.936;4.328;2022-09-09T13:42:29;21.30;99.90
25716;DHT22;13573;50.936;4.328;2022-09-09T13:44:56;21.30;99.90
25716;DHT22;13573;50.936;4.328;2022-09-09T13:47:30;21.90;99.90
25716;DHT22;13573;50.936;4.328;2022-09-09T13:52:24;21.70;99.90
25716;DHT22;13573;50.936;4.328;2022-09-09T13:54:52;21.60;99.90
25716;DHT22;13573;50.936;4.328;2022-09-09T14:02:18;20.50;99.90
25716;DHT22;13573;50.936;4.328;2022-09-09T14:09:44;21.20;99.90
25716;DHT22;13573;50.936;4.328;2022-09-09T14:12:14;20.30;99.90
25716;DHT22;13573;50.936;4.328;2022-09-09T14:17:10;21.00;99.90
25716;DHT22;13573;50.936;4.328;2022-09-09T14:19:40;21.10;99.90
25716;DHT22;13573;50.936;4.328;2022-09-09T14:22:08;21.00;99.90
25716;DHT22;13573;50.936;4.328;2022-09-09T14:24:35;20.40;99.90
25716;DHT22;13573;50.936;4.328;2022-09-09T14:29:28;21.30;99.90
25716;DHT22;13573;50.936;4.328;2022-09-09T14:31:55;21.30;99.90
25716;DHT22;13573;50.936;4.328;2022-09-09T14:34:22;22.00;99.90
25716;DHT22;13573;50.936;4.328;2022-09-09T14:36:49;21.70;99.90
25716;DHT22;13573;50.936;4.328;2022-09-09T14:39:17;21.90;99.90
25716;DHT22;13573;50.936;4.328;2022-09-09T14:41:44;20.90;99.90
25716;DHT22;13573;50.936;4.328;2022-09-09T14:44:11;20.80;99.90
25716;DHT22;13573;50.936;4.328;2022-09-09T14:46:38;21.80;99.90
25716;DHT22;13573;50.936;4.328;2022-09-09T14:49:04;21.80;99.90
25716;DHT22;13573;50.936;4.328;2022-09-09T14:51:31;20.00;99.90
25716;DHT22;13573;50.936;4.328;2022-09-09T14:53:59;19.90;99.90
25716;DHT22;13573;50.936;4.328;2022-09-09T14:56:28;21.40;99.90
25716;DHT22;13573;50.936;4.328;2022-09-09T15:01:24;21.10;99.90
25716;DHT22;13573;50.936;4.328;2022-09-09T15:03:56;21.00;99.90
25716;DHT22;13573;50.936;4.328;2022-09-09T15:06:24;20.60;99.90
25716;DHT22;13573;50.936;4.328;2022-09-09T15:08:52;20.90;99.90
25716;DHT22;13573;50.936;4.328;2022-09-09T15:11:20;21.40;99.90
25716;DHT22;13573;50.936;4.328;2022-09-09T15:13:51;20.90;99.90
25716;DHT22;13573;50.936;4.328;2022-09-09T15:16:21;20.90;99.90
25716;DHT22;13573;50.936;4.328;2022-09-09T15:18:51;20.60;99.90
25716;DHT22;13573;50.936;4.328;2022-09-09T15:21:20;20.50;99.90
25716;DHT22;13573;50.936;4.328;2022-09-09T15:26:15;21.40;99.90
25716;DHT22;13573;50.936;4.328;2022-09-09T15:31:14;21.00;99.90
25716;DHT22;13573;50.936;4.328;2022-09-09T15:33:48;21.20;99.90
25716;DHT22;13573;50.936;4.328;2022-09-09T15:36:20;22.10;99.90
25716;DHT22;13573;50.936;4.328;2022-09-09T15:38:47;20.80;99.90
25716;DHT22;13573;50.936;4.328;2022-09-09T15:41:16;20.80;99.90
25716;DHT22;13573;50.936;4.328;2022-09-09T15:43:46;21.30;99.90
25716;DHT22;13573;50.936;4.328;2022-09-09T15:46:31;21.30;99.90
25716;DHT22;13573;50.936;4.328;2022-09-09T15:49:17;21.00;99.90
25716;DHT22;13573;50.936;4.328;2022-09-09T15:51:46;21.30;99.90
25716;DHT22;13573;50.936;4.328;2022-09-09T15:54:16;21.10;99.90
25716;DHT22;13573;50.936;4.328;2022-09-09T15:56:45;21.10;99.90
25716;DHT22;13573;50.936;4.328;2022-09-09T16:01:40;20.90;99.90
25716;DHT22;13573;50.936;4.328;2022-09-09T16:04:08;21.10;99.90
25716;DHT22;13573;50.936;4.328;2022-09-09T16:06:35;21.00;99.90
25716;DHT22;13573;50.936;4.328;2022-09-09T16:09:05;20.70;99.90
25716;DHT22;13573;50.936;4.328;2022-09-09T16:11:35;20.90;99.90
25716;DHT22;13573;50.936;4.328;2022-09-09T16:14:02;22.10;99.90
25716;DHT22;13573;50.936;4.328;2022-09-09T16:16:30;20.80;99.90
25716;DHT22;13573;50.936;4.328;2022-09-09T16:19:02;20.90;99.90
25716;DHT22;13573;50.936;4.328;2022-09-09T16:23:58;21.90;99.90
25716;DHT22;13573;50.936;4.328;2022-09-09T16:26:27;20.30;99.90
25716;DHT22;13573;50.936;4.328;2022-09-09T16:28:54;19.60;99.90
25716;DHT22;13573;50.936;4.328;2022-09-09T16:31:22;19.60;99.90
25716;DHT22;13573;50.936;4.328;2022-09-09T16:38:45;20.00;99.90
25716;DHT22;13573;50.936;4.328;2022-09-09T16:41:13;19.80;99.90
25716;DHT22;13573;50.936;4.328;2022-09-09T16:46:16;19.50;99.90
25716;DHT22;13573;50.936;4.328;2022-09-09T16:51:16;20.00;99.90
25716;DHT22;13573;50.936;4.328;2022-09-09T16:53:44;20.20;99.90
25716;DHT22;13573;50.936;4.328;2022-09-09T16:56:15;19.60;99.90
25716;DHT22;13573;50.936;4.328;2022-09-09T16:58:50;19.90;99.90
25716;DHT22;13573;50.936;4.328;2022-09-09T17:01:17;20.40;99.90
25716;DHT22;13573;50.936;4.328;2022-09-09T17:03:44;21.50;99.90
25716;DHT22;13573;50.936;4.328;2022-09-09T17:06:12;20.00;99.90
25716;DHT22;13573;50.936;4.328;2022-09-09T17:08:40;20.00;99.90
25716;DHT22;13573;50.936;4.328;2022-09-09T17:13:42;19.80;99.90
25716;DHT22;13573;50.936;4.328;2022-09-09T17:16:09;20.20;99.90
25716;DHT22;13573;50.936;4.328;2022-09-09T17:18:37;20.20;99.90
25716;DHT22;13573;50.936;4.328;2022-09-09T17:21:05;20.10;99.90
25716;DHT22;13573;50.936;4.328;2022-09-09T17:23:33;19.50;99.90
25716;DHT22;13573;50.936;4.328;2022-09-09T17:26:03;19.50;99.90
25716;DHT22;13573;50.936;4.328;2022-09-09T17:28:29;19.80;99.90
25716;DHT22;13573;50.936;4.328;2022-09-09T17:30:58;19.90;99.90
25716;DHT22;13573;50.936;4.328;2022-09-09T17:33:28;20.10;99.90
25716;DHT22;13573;50.936;4.328;2022-09-09T17:36:00;18.70;99.90
25716;DHT22;13573;50.936;4.328;2022-09-09T17:38:29;19.90;99.90
25716;DHT22;13573;50.936;4.328;2022-09-09T17:41:05;19.60;99.90
25716;DHT22;13573;50.936;4.328;2022-09-09T17:43:34;18.90;99.90
25716;DHT22;13573;50.936;4.328;2022-09-09T17:46:10;19.20;99.90
25716;DHT22;13573;50.936;4.328;2022-09-09T17:51:13;19.50;99.90
25716;DHT22;13573;50.936;4.328;2022-09-09T17:53:39;19.60;99.90
25716;DHT22;13573;50.936;4.328;2022-09-09T17:56:09;18.70;99.90
25716;DHT22;13573;50.936;4.328;2022-09-09T17:58:37;17.80;99.90
25716;DHT22;13573;50.936;4.328;2022-09-09T18:03:34;18.70;99.90
25716;DHT22;13573;50.936;4.328;2022-09-09T18:06:04;18.60;99.90
25716;DHT22;13573;50.936;4.328;2022-09-09T18:08:33;19.70;99.90
25716;DHT22;13573;50.936;4.328;2022-09-09T18:11:02;18.50;99.90
25716;DHT22;13573;50.936;4.328;2022-09-09T18:13:30;18.40;99.90
25716;DHT22;13573;50.936;4.328;2022-09-09T18:18:24;18.70;99.90
25716;DHT22;13573;50.936;4.328;2022-09-09T18:20:58;18.80;99.90
25716;DHT22;13573;50.936;4.328;2022-09-09T18:25:54;18.00;99.90
25716;DHT22;13573;50.936;4.328;2022-09-09T18:28:20;18.50;99.90
25716;DHT22;13573;50.936;4.328;2022-09-09T18:35:41;17.60;99.90
25716;DHT22;13573;50.936;4.328;2022-09-09T18:38:08;18.10;99.90
25716;DHT22;13573;50.936;4.328;2022-09-09T18:40:35;18.20;99.90
25716;DHT22;13573;50.936;4.328;2022-09-09T18:43:02;16.90;99.90
25716;DHT22;13573;50.936;4.328;2022-09-09T18:45:33;18.10;99.90
25716;DHT22;13573;50.936;4.328;2022-09-09T18:47:59;16.80;99.90
25716;DHT22;13573;50.936;4.328;2022-09-09T18:50:27;18.20;99.90
25716;DHT22;13573;50.936;4.328;2022-09-09T18:52:54;18.20;99.90
25716;DHT22;13573;50.936;4.328;2022-09-09T18:55:21;17.90;99.90
25716;DHT22;13573;50.936;4.328;2022-09-09T18:57:47;18.30;99.90
25716;DHT22;13573;50.936;4.328;2022-09-09T19:00:15;18.10;99.90
25716;DHT22;13573;50.936;4.328;2022-09-09T19:05:08;17.80;99.90
25716;DHT22;13573;50.936;4.328;2022-09-09T19:07:35;17.80;99.90
25716;DHT22;13573;50.936;4.328;2022-09-09T19:10:04;17.80;99.90
25716;DHT22;13573;50.936;4.328;2022-09-09T19:12:31;16.90;99.90
25716;DHT22;13573;50.936;4.328;2022-09-09T19:17:25;17.30;99.90
25716;DHT22;13573;50.936;4.328;2022-09-09T19:19:53;17.40;99.90
25716;DHT22;13573;50.936;4.328;2022-09-09T19:22:20;17.80;99.90
25716;DHT22;13573;50.936;4.328;2022-09-09T19:24:48;17.50;99.90
25716;DHT22;13573;50.936;4.328;2022-09-09T19:27:15;17.50;99.90
25716;DHT22;13573;50.936;4.328;2022-09-09T19:29:41;17.50;99.90
25716;DHT22;13573;50.936;4.328;2022-09-09T19:32:09;17.30;99.90
25716;DHT22;13573;50.936;4.328;2022-09-09T19:34:36;17.40;99.90
25716;DHT22;13573;50.936;4.328;2022-09-09T19:37:03;17.60;99.90
25716;DHT22;13573;50.936;4.328;2022-09-09T19:39:31;17.70;99.90
25716;DHT22;13573;50.936;4.328;2022-09-09T19:41:59;17.70;99.90
25716;DHT22;13573;50.936;4.328;2022-09-09T19:44:26;17.20;99.90
25716;DHT22;13573;50.936;4.328;2022-09-09T19:46:52;17.10;99.90
25716;DHT22;13573;50.936;4.328;2022-09-09T19:49:20;17.50;99.90
25716;DHT22;13573;50.936;4.328;2022-09-09T19:51:47;17.50;99.90
25716;DHT22;13573;50.936;4.328;2022-09-09T19:54:13;16.90;99.90
25716;DHT22;13573;50.936;4.328;2022-09-09T19:56:41;17.30;99.90
25716;DHT22;13573;50.936;4.328;2022-09-09T19:59:10;16.80;99.90
25716;DHT22;13573;50.936;4.328;2022-09-09T20:01:40;17.20;99.90
25716;DHT22;13573;50.936;4.328;2022-09-09T20:04:09;16.90;99.90
25716;DHT22;13573;50.936;4.328;2022-09-09T20:09:06;16.30;99.90
25716;DHT22;13573;50.936;4.328;2022-09-09T20:16:29;17.00;99.90
25716;DHT22;13573;50.936;4.328;2022-09-09T20:18:58;16.90;99.90
25716;DHT22;13573;50.936;4.328;2022-09-09T20:21:29;16.90;99.90
25716;DHT22;13573;50.936;4.328;2022-09-09T20:26:25;16.90;99.90
25716;DHT22;13573;50.936;4.328;2022-09-09T20:28:54;16.70;99.90
25716;DHT22;13573;50.936;4.328;2022-09-09T20:33:50;16.60;99.90
25716;DHT22;13573;50.936;4.328;2022-09-09T20:36:23;16.40;99.90
25716;DHT22;13573;50.936;4.328;2022-09-09T20:43:53;16.80;99.90
25716;DHT22;13573;50.936;4.328;2022-09-09T20:46:23;16.60;99.90
25716;DHT22;13573;50.936;4.328;2022-09-09T20:48:51;17.80;99.90
25716;DHT22;13573;50.936;4.328;2022-09-09T20:51:21;16.50;99.90
25716;DHT22;13573;50.936;4.328;2022-09-09T20:53:55;16.50;99.90
25716;DHT22;13573;50.936;4.328;2022-09-09T20:56:25;16.40;99.90
25716;DHT22;13573;50.936;4.328;2022-09-09T20:58:53;16.40;99.90
25716;DHT22;13573;50.936;4.328;2022-09-09T21:01:22;17.90;99.90
25716;DHT22;13573;50.936;4.328;2022-09-09T21:03:48;16.70;99.90
25716;DHT22;13573;50.936;4.328;2022-09-09T21:06:16;16.60;99.90
25716;DHT22;13573;50.936;4.328;2022-09-09T21:08:43;16.60;99.90
25716;DHT22;13573;50.936;4.328;2022-09-09T21:11:10;16.20;99.90
25716;DHT22;13573;50.936;4.328;2022-09-09T21:13:38;16.20;99.90
25716;DHT22;13573;50.936;4.328;2022-09-09T21:16:08;16.40;99.90
25716;DHT22;13573;50.936;4.328;2022-09-09T21:18:35;16.30;99.90
25716;DHT22;13573;50.936;4.328;2022-09-09T21:21:02;16.00;99.90
25716;DHT22;13573;50.936;4.328;2022-09-09T21:23:29;15.80;99.90
25716;DHT22;13573;50.936;4.328;2022-09-09T21:25:56;16.40;99.90
25716;DHT22;13573;50.936;4.328;2022-09-09T21:28:23;16.10;99.90
25716;DHT22;13573;50.936;4.328;2022-09-09T21:30:53;16.20;99.90
25716;DHT22;13573;50.936;4.328;2022-09-09T21:33:22;16.20;99.90
25716;DHT22;13573;50.936;4.328;2022-09-09T21:35:50;15.10;99.90
25716;DHT22;13573;50.936;4.328;2022-09-09T21:38:21;16.30;99.90
25716;DHT22;13573;50.936;4.328;2022-09-09T21:43:16;16.70;99.90
25716;DHT22;13573;50.936;4.328;2022-09-09T21:45:44;16.50;99.90
25716;DHT22;13573;50.936;4.328;2022-09-09T21:48:13;16.30;99.90
25716;DHT22;13573;50.936;4.328;2022-09-09T21:50:42;16.20;99.90
25716;DHT22;13573;50.936;4.328;2022-09-09T21:53:11;16.40;99.90
25716;DHT22;13573;50.936;4.328;2022-09-09T21:55:40;16.20;99.90
25716;DHT22;13573;50.936;4.328;2022-09-09T21:58:08;16.00;99.90
25716;DHT22;13573;50.936;4.328;2022-09-09T22:00:41;16.50;99.90
25716;DHT22;13573;50.936;4.328;2022-09-09T22:03:11;16.40;99.90
25716;DHT22;13573;50.936;4.328;2022-09-09T22:05:40;16.50;99.90
25716;DHT22;13573;50.936;4.328;2022-09-09T22:10:40;15.50;99.90
25716;DHT22;13573;50.936;4.328;2022-09-09T22:13:07;16.10;99.90
25716;DHT22;13573;50.936;4.328;2022-09-09T22:15:34;17.40;99.90
25716;DHT22;13573;50.936;4.328;2022-09-09T22:20:32;16.10;99.90
25716;DHT22;13573;50.936;4.328;2022-09-09T22:27:56;16.10;99.90
25716;DHT22;13573;50.936;4.328;2022-09-09T22:30:23;16.30;99.90
25716;DHT22;13573;50.936;4.328;2022-09-09T22:37:43;16.60;99.90
25716;DHT22;13573;50.936;4.328;2022-09-09T22:40:10;16.40;99.90
25716;DHT22;13573;50.936;4.328;2022-09-09T22:42:39;16.00;99.90
25716;DHT22;13573;50.936;4.328;2022-09-09T22:45:09;16.40;99.90
25716;DHT22;13573;50.936;4.328;2022-09-09T22:50:06;16.30;99.90
25716;DHT22;13573;50.936;4.328;2022-09-09T22:52:33;16.00;99.90
25716;DHT22;13573;50.936;4.328;2022-09-09T22:55:00;16.00;99.90
25716;DHT22;13573;50.936;4.328;2022-09-09T22:57:27;16.70;99.90
25716;DHT22;13573;50.936;4.328;2022-09-09T23:02:24;16.10;99.90
25716;DHT22;13573;50.936;4.328;2022-09-09T23:04:51;16.00;99.90
25716;DHT22;13573;50.936;4.328;2022-09-09T23:07:18;15.90;99.90
25716;DHT22;13573;50.936;4.328;2022-09-09T23:12:12;16.10;99.90
25716;DHT22;13573;50.936;4.328;2022-09-09T23:14:39;16.20;99.90
25716;DHT22;13573;50.936;4.328;2022-09-09T23:17:06;15.60;99.90
25716;DHT22;13573;50.936;4.328;2022-09-09T23:19:33;16.90;99.90
25716;DHT22;13573;50.936;4.328;2022-09-09T23:24:28;15.90;99.90
25716;DHT22;13573;50.936;4.328;2022-09-09T23:26:55;15.80;99.90
25716;DHT22;13573;50.936;4.328;2022-09-09T23:29:22;16.40;99.90
25716;DHT22;13573;50.936;4.328;2022-09-09T23:31:49;16.10;99.90
25716;DHT22;13573;50.936;4.328;2022-09-09T23:34:15;16.30;99.90
25716;DHT22;13573;50.936;4.328;2022-09-09T23:36:43;15.10;99.90
25716;DHT22;13573;50.936;4.328;2022-09-09T23:39:10;16.40;99.90
25716;DHT22;13573;50.936;4.328;2022-09-09T23:41:38;17.60;99.90
25716;DHT22;13573;50.936;4.328;2022-09-09T23:48:59;16.10;99.90
25716;DHT22;13573;50.936;4.328;2022-09-09T23:53:57;16.20;99.90
25716;DHT22;13573;50.936;4.328;2022-09-09T23:56:28;16.30;99.90
25716;DHT22;13573;50.936;4.328;2022-09-09T23:58:56;15.60;99.90
